sensor_id;sensor_type;location;lat;lon;timestamp;P1;durP1;ratioP1;P2;durP2;ratioP2
51485;SDS011;37565;51.352;6.412;2023-03-03T00:01:09;13.88;;;8.70;;
51485;SDS011;37565;51.352;6.412;2023-03-03T12:46:34;16.38;;;7.07;;
51485;SDS011;37565;51.352;6.412;2023-03-03T12:49:11;12.18;;;5.80;;
51485;SDS011;37565;51.352;6.412;2023-03-03T12:51:41;22.83;;;5.95;;
51485;SDS011;37565;51.352;6.412;2023-03-03T12:54:20;12.85;;;5.68;;
51485;SDS011;37565;51.352;6.412;2023-03-03T12:57:04;9.35;;;5.50;;
51485;SDS011;37565;51.352;6.412;2023-03-03T12:59:41;8.18;;;4.78;;
51485;SDS011;37565;51.352;6.412;2023-03-03T13:02:28;10.38;;;4.15;;
51485;SDS011;37565;51.352;6.412;2023-03-03T13:05:21;13.70;;;3.78;;
51485;SDS011;37565;51.352;6.412;2023-03-03T13:07:55;7.60;;;4.57;;
51485;SDS011;37565;51.352;6.412;2023-03-03T13:10:58;8.38;;;3.67;;
51485;SDS011;37565;51.352;6.412;2023-03-03T13:13:38;5.45;;;2.97;;
51485;SDS011;37565;51.352;6.412;2023-03-03T13:16:14;4.60;;;3.35;;
51485;SDS011;37565;51.352;6.412;2023-03-03T15:11:24;16.20;;;5.75;;
51485;SDS011;37565;51.352;6.412;2023-03-03T15:14:03;18.83;;;6.20;;
51485;SDS011;37565;51.352;6.412;2023-03-03T15:16:38;20.73;;;8.35;;
51485;SDS011;37565;51.352;6.412;2023-03-03T15:22:10;33.83;;;16.83;;
51485;SDS011;37565;51.352;6.412;2023-03-03T15:24:48;39.00;;;17.40;;
51485;SDS011;37565;51.352;6.412;2023-03-03T15:27:25;37.38;;;18.63;;
51485;SDS011;37565;51.352;6.412;2023-03-03T15:32:32;42.88;;;18.08;;
51485;SDS011;37565;51.352;6.412;2023-03-03T15:35:12;35.53;;;17.63;;
51485;SDS011;37565;51.352;6.412;2023-03-03T15:37:53;32.28;;;15.77;;
51485;SDS011;37565;51.352;6.412;2023-03-03T15:40:27;34.63;;;15.77;;
51485;SDS011;37565;51.352;6.412;2023-03-03T15:43:03;30.33;;;14.30;;
51485;SDS011;37565;51.352;6.412;2023-03-03T15:45:41;29.80;;;13.20;;
51485;SDS011;37565;51.352;6.412;2023-03-03T15:48:23;26.67;;;13.48;;
51485;SDS011;37565;51.352;6.412;2023-03-03T15:51:03;28.38;;;12.85;;
51485;SDS011;37565;51.352;6.412;2023-03-03T15:53:41;32.50;;;11.75;;
51485;SDS011;37565;51.352;6.412;2023-03-03T15:56:22;25.13;;;11.93;;
51485;SDS011;37565;51.352;6.412;2023-03-03T15:59:05;24.98;;;11.05;;
51485;SDS011;37565;51.352;6.412;2023-03-03T16:01:48;18.58;;;9.70;;
51485;SDS011;37565;51.352;6.412;2023-03-03T16:04:23;20.98;;;9.85;;
51485;SDS011;37565;51.352;6.412;2023-03-03T16:06:55;16.25;;;8.32;;
51485;SDS011;37565;51.352;6.412;2023-03-03T16:09:32;21.03;;;9.70;;
51485;SDS011;37565;51.352;6.412;2023-03-03T16:12:15;14.88;;;7.90;;
51485;SDS011;37565;51.352;6.412;2023-03-03T16:14:56;15.52;;;7.80;;
51485;SDS011;37565;51.352;6.412;2023-03-03T16:17:45;13.25;;;7.18;;
51485;SDS011;37565;51.352;6.412;2023-03-03T16:20:20;17.17;;;8.15;;
51485;SDS011;37565;51.352;6.412;2023-03-03T16:22:57;16.67;;;7.20;;
51485;SDS011;37565;51.352;6.412;2023-03-03T16:25:56;12.50;;;6.22;;
51485;SDS011;37565;51.352;6.412;2023-03-03T16:28:35;30.05;;;6.85;;
51485;SDS011;37565;51.352;6.412;2023-03-03T16:31:12;16.23;;;6.25;;
51485;SDS011;37565;51.352;6.412;2023-03-03T16:33:49;10.93;;;5.25;;
51485;SDS011;37565;51.352;6.412;2023-03-03T16:36:26;13.70;;;5.18;;
51485;SDS011;37565;51.352;6.412;2023-03-03T16:39:00;12.80;;;4.88;;
51485;SDS011;37565;51.352;6.412;2023-03-03T16:41:36;10.98;;;4.40;;
51485;SDS011;37565;51.352;6.412;2023-03-03T16:44:21;10.50;;;4.00;;
51485;SDS011;37565;51.352;6.412;2023-03-03T16:47:01;5.95;;;3.80;;
51485;SDS011;37565;51.352;6.412;2023-03-03T16:49:42;8.02;;;3.60;;
51485;SDS011;37565;51.352;6.412;2023-03-03T16:52:15;6.97;;;2.63;;
51485;SDS011;37565;51.352;6.412;2023-03-03T16:54:50;7.18;;;2.60;;
51485;SDS011;37565;51.352;6.412;2023-03-03T16:57:25;6.75;;;3.10;;
51485;SDS011;37565;51.352;6.412;2023-03-03T17:00:01;7.05;;;2.97;;
51485;SDS011;37565;51.352;6.412;2023-03-03T17:02:39;3.53;;;2.22;;
51485;SDS011;37565;51.352;6.412;2023-03-03T17:05:23;5.25;;;2.70;;
51485;SDS011;37565;51.352;6.412;2023-03-03T17:08:01;3.33;;;2.25;;
51485;SDS011;37565;51.352;6.412;2023-03-03T17:10:39;5.38;;;2.30;;
51485;SDS011;37565;51.352;6.412;2023-03-03T17:13:15;6.22;;;3.08;;
51485;SDS011;37565;51.352;6.412;2023-03-03T17:16:00;3.78;;;2.25;;
51485;SDS011;37565;51.352;6.412;2023-03-03T17:18:38;5.30;;;2.30;;
51485;SDS011;37565;51.352;6.412;2023-03-03T17:21:18;3.85;;;2.40;;
51485;SDS011;37565;51.352;6.412;2023-03-03T17:23:57;5.28;;;2.33;;
51485;SDS011;37565;51.352;6.412;2023-03-03T17:26:35;5.78;;;2.15;;
51485;SDS011;37565;51.352;6.412;2023-03-03T17:29:22;5.38;;;2.22;;
51485;SDS011;37565;51.352;6.412;2023-03-03T17:32:06;3.70;;;2.10;;
51485;SDS011;37565;51.352;6.412;2023-03-03T17:34:45;2.95;;;1.73;;
51485;SDS011;37565;51.352;6.412;2023-03-03T17:37:28;8.27;;;2.00;;
51485;SDS011;37565;51.352;6.412;2023-03-03T17:40:04;2.67;;;1.50;;
51485;SDS011;37565;51.352;6.412;2023-03-03T17:42:46;2.70;;;1.83;;
51485;SDS011;37565;51.352;6.412;2023-03-03T17:45:19;3.25;;;1.20;;
51485;SDS011;37565;51.352;6.412;2023-03-03T17:47:52;3.63;;;1.90;;
51485;SDS011;37565;51.352;6.412;2023-03-03T17:50:51;3.30;;;1.75;;
51485;SDS011;37565;51.352;6.412;2023-03-03T17:56:22;3.08;;;1.42;;
51485;SDS011;37565;51.352;6.412;2023-03-03T18:05:12;5.25;;;2.53;;
51485;SDS011;37565;51.352;6.412;2023-03-03T18:08:09;6.15;;;3.95;;
51485;SDS011;37565;51.352;6.412;2023-03-03T18:11:18;6.38;;;4.13;;
51485;SDS011;37565;51.352;6.412;2023-03-03T18:17:25;9.75;;;6.13;;
51485;SDS011;37565;51.352;6.412;2023-03-03T18:23:22;11.80;;;7.80;;
51485;SDS011;37565;51.352;6.412;2023-03-03T18:25:59;12.02;;;7.63;;
51485;SDS011;37565;51.352;6.412;2023-03-03T18:31:20;12.60;;;8.40;;
51485;SDS011;37565;51.352;6.412;2023-03-03T18:34:00;13.18;;;9.20;;
51485;SDS011;37565;51.352;6.412;2023-03-03T18:36:34;17.73;;;10.85;;
51485;SDS011;37565;51.352;6.412;2023-03-03T18:39:05;15.10;;;10.88;;
51485;SDS011;37565;51.352;6.412;2023-03-03T18:44:36;17.88;;;11.88;;
51485;SDS011;37565;51.352;6.412;2023-03-03T18:47:04;20.27;;;12.85;;
51485;SDS011;37565;51.352;6.412;2023-03-03T18:49:49;24.42;;;14.02;;
51485;SDS011;37565;51.352;6.412;2023-03-03T18:52:22;20.27;;;14.02;;
51485;SDS011;37565;51.352;6.412;2023-03-03T18:55:02;23.85;;;14.27;;
51485;SDS011;37565;51.352;6.412;2023-03-03T19:00:57;20.80;;;15.05;;
51485;SDS011;37565;51.352;6.412;2023-03-03T19:03:31;26.70;;;15.05;;
51485;SDS011;37565;51.352;6.412;2023-03-03T19:06:01;26.13;;;16.27;;
51485;SDS011;37565;51.352;6.412;2023-03-03T19:08:45;24.45;;;16.30;;
51485;SDS011;37565;51.352;6.412;2023-03-03T19:11:38;25.55;;;15.90;;
51485;SDS011;37565;51.352;6.412;2023-03-03T19:14:12;27.77;;;18.23;;
51485;SDS011;37565;51.352;6.412;2023-03-03T19:16:57;30.65;;;19.02;;
51485;SDS011;37565;51.352;6.412;2023-03-03T19:19:28;29.42;;;19.65;;
51485;SDS011;37565;51.352;6.412;2023-03-03T19:22:19;34.75;;;20.90;;
51485;SDS011;37565;51.352;6.412;2023-03-03T19:25:11;29.58;;;20.25;;
51485;SDS011;37565;51.352;6.412;2023-03-03T19:27:48;29.30;;;19.27;;
51485;SDS011;37565;51.352;6.412;2023-03-03T19:30:28;33.00;;;20.15;;
51485;SDS011;37565;51.352;6.412;2023-03-03T19:33:14;43.20;;;25.90;;
51485;SDS011;37565;51.352;6.412;2023-03-03T19:36:09;55.90;;;31.42;;
51485;SDS011;37565;51.352;6.412;2023-03-03T19:39:16;44.85;;;28.85;;
51485;SDS011;37565;51.352;6.412;2023-03-03T19:42:01;46.90;;;28.67;;
51485;SDS011;37565;51.352;6.412;2023-03-03T19:44:41;40.80;;;25.77;;
51485;SDS011;37565;51.352;6.412;2023-03-03T19:47:29;42.47;;;28.00;;
51485;SDS011;37565;51.352;6.412;2023-03-03T19:50:09;55.95;;;27.25;;
51485;SDS011;37565;51.352;6.412;2023-03-03T19:52:45;45.85;;;27.88;;
51485;SDS011;37565;51.352;6.412;2023-03-03T19:55:24;43.75;;;27.30;;
51485;SDS011;37565;51.352;6.412;2023-03-03T19:57:58;45.85;;;28.15;;
51485;SDS011;37565;51.352;6.412;2023-03-03T20:00:35;43.67;;;26.55;;
51485;SDS011;37565;51.352;6.412;2023-03-03T20:03:22;47.63;;;29.45;;
51485;SDS011;37565;51.352;6.412;2023-03-03T20:06:06;44.38;;;28.65;;
51485;SDS011;37565;51.352;6.412;2023-03-03T20:08:45;52.00;;;31.70;;
51485;SDS011;37565;51.352;6.412;2023-03-03T20:11:25;51.00;;;32.25;;
51485;SDS011;37565;51.352;6.412;2023-03-03T20:14:31;53.15;;;31.60;;
51485;SDS011;37565;51.352;6.412;2023-03-03T20:17:24;48.13;;;31.42;;
51485;SDS011;37565;51.352;6.412;2023-03-03T20:20:31;58.63;;;35.78;;
51485;SDS011;37565;51.352;6.412;2023-03-03T20:23:09;55.70;;;35.63;;
51485;SDS011;37565;51.352;6.412;2023-03-03T20:25:45;62.00;;;37.75;;
51485;SDS011;37565;51.352;6.412;2023-03-03T20:28:23;52.45;;;33.38;;
51485;SDS011;37565;51.352;6.412;2023-03-03T20:31:05;56.47;;;34.95;;
51485;SDS011;37565;51.352;6.412;2023-03-03T20:33:47;55.58;;;33.97;;
51485;SDS011;37565;51.352;6.412;2023-03-03T20:36:24;51.25;;;32.30;;
51485;SDS011;37565;51.352;6.412;2023-03-03T20:39:00;48.13;;;31.08;;
51485;SDS011;37565;51.352;6.412;2023-03-03T20:41:42;51.97;;;32.55;;
51485;SDS011;37565;51.352;6.412;2023-03-03T20:44:20;52.10;;;31.67;;
51485;SDS011;37565;51.352;6.412;2023-03-03T20:47:01;53.50;;;32.75;;
51485;SDS011;37565;51.352;6.412;2023-03-03T20:49:46;43.97;;;28.83;;
51485;SDS011;37565;51.352;6.412;2023-03-03T20:52:25;44.88;;;28.27;;
51485;SDS011;37565;51.352;6.412;2023-03-03T20:55:00;42.35;;;27.25;;
51485;SDS011;37565;51.352;6.412;2023-03-03T20:57:37;39.88;;;27.10;;
51485;SDS011;37565;51.352;6.412;2023-03-03T21:00:13;41.08;;;26.30;;
51485;SDS011;37565;51.352;6.412;2023-03-03T21:02:47;44.70;;;25.80;;
51485;SDS011;37565;51.352;6.412;2023-03-03T21:05:23;36.17;;;23.42;;
51485;SDS011;37565;51.352;6.412;2023-03-03T21:07:52;42.45;;;25.52;;
51485;SDS011;37565;51.352;6.412;2023-03-03T21:10:22;36.83;;;23.73;;
51485;SDS011;37565;51.352;6.412;2023-03-03T21:12:52;45.45;;;29.17;;
51485;SDS011;37565;51.352;6.412;2023-03-03T21:15:23;38.83;;;25.88;;
51485;SDS011;37565;51.352;6.412;2023-03-03T21:17:53;41.20;;;25.33;;
51485;SDS011;37565;51.352;6.412;2023-03-03T21:20:25;38.40;;;23.35;;
51485;SDS011;37565;51.352;6.412;2023-03-03T21:22:56;44.33;;;26.25;;
51485;SDS011;37565;51.352;6.412;2023-03-03T21:25:44;33.47;;;21.73;;
51485;SDS011;37565;51.352;6.412;2023-03-03T21:28:15;38.42;;;24.88;;
51485;SDS011;37565;51.352;6.412;2023-03-03T21:31:02;36.03;;;21.73;;
51485;SDS011;37565;51.352;6.412;2023-03-03T21:33:44;30.08;;;20.13;;
51485;SDS011;37565;51.352;6.412;2023-03-03T21:36:20;27.15;;;18.42;;
51485;SDS011;37565;51.352;6.412;2023-03-03T21:38:51;38.58;;;24.25;;
51485;SDS011;37565;51.352;6.412;2023-03-03T21:41:19;29.65;;;18.13;;
51485;SDS011;37565;51.352;6.412;2023-03-03T21:43:48;35.83;;;20.58;;
51485;SDS011;37565;51.352;6.412;2023-03-03T21:46:17;29.30;;;18.73;;
51485;SDS011;37565;51.352;6.412;2023-03-03T21:48:46;29.95;;;19.50;;
51485;SDS011;37565;51.352;6.412;2023-03-03T21:51:14;40.75;;;26.10;;
51485;SDS011;37565;51.352;6.412;2023-03-03T21:53:44;35.50;;;18.95;;
51485;SDS011;37565;51.352;6.412;2023-03-03T21:56:13;27.35;;;19.00;;
51485;SDS011;37565;51.352;6.412;2023-03-03T21:58:41;30.80;;;18.77;;
51485;SDS011;37565;51.352;6.412;2023-03-03T22:01:09;25.35;;;17.92;;
51485;SDS011;37565;51.352;6.412;2023-03-03T22:03:37;30.65;;;18.48;;
51485;SDS011;37565;51.352;6.412;2023-03-03T22:06:05;31.40;;;18.67;;
51485;SDS011;37565;51.352;6.412;2023-03-03T22:08:33;29.77;;;19.65;;
51485;SDS011;37565;51.352;6.412;2023-03-03T22:11:03;31.05;;;19.98;;
51485;SDS011;37565;51.352;6.412;2023-03-03T22:13:31;29.70;;;19.75;;
51485;SDS011;37565;51.352;6.412;2023-03-03T22:15:59;28.95;;;19.42;;
51485;SDS011;37565;51.352;6.412;2023-03-03T22:18:27;28.50;;;19.13;;
51485;SDS011;37565;51.352;6.412;2023-03-03T22:20:55;29.13;;;19.10;;
51485;SDS011;37565;51.352;6.412;2023-03-03T22:23:23;34.40;;;22.67;;
51485;SDS011;37565;51.352;6.412;2023-03-03T22:25:51;28.40;;;19.15;;
51485;SDS011;37565;51.352;6.412;2023-03-03T22:28:20;30.08;;;18.23;;
51485;SDS011;37565;51.352;6.412;2023-03-03T22:30:49;31.88;;;20.25;;
51485;SDS011;37565;51.352;6.412;2023-03-03T22:33:17;34.97;;;22.55;;
51485;SDS011;37565;51.352;6.412;2023-03-03T22:35:45;29.92;;;18.95;;
51485;SDS011;37565;51.352;6.412;2023-03-03T22:38:13;37.00;;;21.83;;
51485;SDS011;37565;51.352;6.412;2023-03-03T22:40:41;34.83;;;20.88;;
51485;SDS011;37565;51.352;6.412;2023-03-03T22:43:09;33.67;;;21.63;;
51485;SDS011;37565;51.352;6.412;2023-03-03T22:45:40;39.00;;;26.02;;
51485;SDS011;37565;51.352;6.412;2023-03-03T22:48:09;41.47;;;26.95;;
51485;SDS011;37565;51.352;6.412;2023-03-03T22:50:38;38.72;;;24.33;;
51485;SDS011;37565;51.352;6.412;2023-03-03T22:53:08;37.60;;;23.42;;
51485;SDS011;37565;51.352;6.412;2023-03-03T22:55:36;35.75;;;23.58;;
51485;SDS011;37565;51.352;6.412;2023-03-03T22:58:04;41.92;;;26.27;;
51485;SDS011;37565;51.352;6.412;2023-03-03T23:00:34;43.47;;;25.85;;
51485;SDS011;37565;51.352;6.412;2023-03-03T23:03:05;46.05;;;28.73;;
51485;SDS011;37565;51.352;6.412;2023-03-03T23:05:34;46.90;;;29.02;;
51485;SDS011;37565;51.352;6.412;2023-03-03T23:08:02;43.65;;;27.42;;
51485;SDS011;37565;51.352;6.412;2023-03-03T23:10:32;43.15;;;29.00;;
51485;SDS011;37565;51.352;6.412;2023-03-03T23:13:00;52.00;;;29.88;;
51485;SDS011;37565;51.352;6.412;2023-03-03T23:15:28;51.25;;;30.45;;
51485;SDS011;37565;51.352;6.412;2023-03-03T23:17:57;49.88;;;29.67;;
51485;SDS011;37565;51.352;6.412;2023-03-03T23:20:27;63.20;;;38.70;;
51485;SDS011;37565;51.352;6.412;2023-03-03T23:22:57;50.40;;;27.75;;
51485;SDS011;37565;51.352;6.412;2023-03-03T23:25:25;65.22;;;33.45;;
51485;SDS011;37565;51.352;6.412;2023-03-03T23:27:54;47.63;;;30.52;;
51485;SDS011;37565;51.352;6.412;2023-03-03T23:30:22;43.33;;;26.27;;
51485;SDS011;37565;51.352;6.412;2023-03-03T23:32:50;46.20;;;24.08;;
51485;SDS011;37565;51.352;6.412;2023-03-03T23:35:19;33.50;;;22.05;;
51485;SDS011;37565;51.352;6.412;2023-03-03T23:37:48;29.00;;;19.05;;
51485;SDS011;37565;51.352;6.412;2023-03-03T23:40:17;27.60;;;17.55;;
51485;SDS011;37565;51.352;6.412;2023-03-03T23:42:46;27.83;;;16.63;;
51485;SDS011;37565;51.352;6.412;2023-03-03T23:45:14;28.23;;;15.75;;
51485;SDS011;37565;51.352;6.412;2023-03-03T23:47:42;28.48;;;14.45;;
51485;SDS011;37565;51.352;6.412;2023-03-03T23:50:10;22.77;;;13.75;;
51485;SDS011;37565;51.352;6.412;2023-03-03T23:52:39;21.60;;;13.45;;
51485;SDS011;37565;51.352;6.412;2023-03-03T23:55:09;19.67;;;11.90;;
51485;SDS011;37565;51.352;6.412;2023-03-03T23:57:37;19.45;;;11.63;;
